Time;durP1;ratioP1;P1;durP2;ratioP2;P2;SDS_P1;SDS_P2;PMS_P1;PMS_P2;Temp;Humidity;BMP_temperature;BMP_pressure;BME280_temperature;BME280_humidity;BME280_pressure;Samples;Min_cycle;Max_cycle;Signal;HPM_P1;HPM_P2
2024/03/04 00:01:20;;;;;;;22.67;12.53;;;4.80;99.90;;;;;;5102275;28;20222;-78
2024/03/04 00:03:46;;;;;;;24.70;13.53;;;4.80;99.90;;;;;;5102314;28;20198;-78
2024/03/04 00:06:13;;;;;;;22.73;13.03;;;4.80;99.90;;;;;;5100823;28;20205;-78
2024/03/04 00:08:40;;;;;;;25.00;14.73;;;4.80;99.90;;;;;;5101010;28;20206;-78
2024/03/04 00:11:07;;;;;;;22.60;12.50;;;4.90;99.90;;;;;;5103802;28;20220;-78
2024/03/04 00:13:35;;;;;;;27.90;13.77;;;4.80;99.90;;;;;;5103235;28;20229;-78
2024/03/04 00:16:05;;;;;;;23.30;12.53;;;4.80;99.90;;;;;;5100650;28;20222;-78
2024/03/04 00:18:32;;;;;;;25.13;14.37;;;4.80;99.90;;;;;;5101388;28;20206;-77
2024/03/04 00:20:59;;;;;;;22.93;12.87;;;4.90;99.90;;;;;;5101230;28;20224;-78
2024/03/04 00:23:26;;;;;;;24.33;13.53;;;4.80;99.90;;;;;;5101089;28;20250;-78
2024/03/04 00:25:53;;;;;;;23.23;12.30;;;4.90;99.90;;;;;;5109209;28;20280;-78
2024/03/04 00:28:20;;;;;;;24.97;13.83;;;4.80;99.90;;;;;;5102591;28;20324;-78
2024/03/04 00:30:46;;;;;;;20.43;11.97;;;4.70;99.90;;;;;;5106476;28;20221;-78
2024/03/04 00:33:15;;;;;;;25.30;13.97;;;4.60;99.90;;;;;;5107365;28;20281;-78
2024/03/04 00:35:43;;;;;;;24.10;13.47;;;4.50;99.90;;;;;;5106561;28;20213;-78
2024/03/04 00:38:11;;;;;;;26.10;12.73;;;4.60;99.90;;;;;;5113354;28;20197;-78
2024/03/04 00:40:38;;;;;;;24.33;12.97;;;4.60;99.90;;;;;;5114569;28;20226;-78
2024/03/04 00:43:05;;;;;;;25.60;13.87;;;4.70;99.90;;;;;;5118367;28;20226;-77
2024/03/04 00:45:32;;;;;;;23.33;13.00;;;4.80;99.90;;;;;;5116400;28;20265;-78
2024/03/04 00:47:59;;;;;;;24.70;13.47;;;4.80;99.90;;;;;;5119347;28;20208;-78
2024/03/04 00:50:27;;;;;;;23.37;12.30;;;4.60;99.90;;;;;;5103750;28;20218;-78
2024/03/04 00:52:55;;;;;;;20.77;11.50;;;4.50;99.90;;;;;;5101253;28;20575;-78
2024/03/04 00:55:22;;;;;;;19.67;10.47;;;4.30;99.90;;;;;;5106285;28;20278;-78
2024/03/04 00:57:49;;;;;;;28.00;12.77;;;4.30;99.90;;;;;;5099724;28;20238;-78
2024/03/04 01:00:17;;;;;;;22.30;12.30;;;4.40;99.90;;;;;;5100551;28;20239;-78
2024/03/04 01:02:44;;;;;;;23.43;13.07;;;4.40;99.90;;;;;;5101597;28;20201;-78
2024/03/04 01:05:12;;;;;;;21.13;11.80;;;4.50;99.90;;;;;;5100582;28;20208;-78
2024/03/04 01:07:40;;;;;;;22.67;12.87;;;4.30;99.90;;;;;;5100294;28;20229;-78
2024/03/04 01:10:08;;;;;;;23.43;12.87;;;4.20;99.90;;;;;;5107262;28;20578;-78
2024/03/04 01:12:35;;;;;;;23.33;12.53;;;4.10;99.90;;;;;;5104273;28;20257;-78
2024/03/04 01:15:04;;;;;;;21.53;11.33;;;4.00;99.90;;;;;;5104967;27;20233;-78
2024/03/04 01:17:30;;;;;;;22.43;11.93;;;4.00;99.90;;;;;;5104098;28;20216;-77
2024/03/04 01:19:57;;;;;;;24.50;13.93;;;4.10;99.90;;;;;;5105422;28;20225;-78
2024/03/04 01:22:25;;;;;;;22.07;12.20;;;4.10;99.90;;;;;;5100422;28;20288;-78
2024/03/04 01:24:53;;;;;;;24.10;12.70;;;4.00;99.90;;;;;;5103652;28;20232;-78
2024/03/04 01:27:21;;;;;;;25.90;13.73;;;4.00;99.90;;;;;;5103033;28;20674;-78
2024/03/04 01:29:48;;;;;;;23.37;13.27;;;4.10;99.90;;;;;;5105037;28;20248;-78
2024/03/04 01:32:15;;;;;;;23.30;13.20;;;4.10;99.90;;;;;;5099978;28;20232;-78
2024/03/04 01:34:41;;;;;;;22.20;12.40;;;4.10;99.90;;;;;;5101181;28;20221;-78
2024/03/04 01:37:09;;;;;;;25.13;13.07;;;4.10;99.90;;;;;;5107773;28;20283;-78
2024/03/04 01:39:37;;;;;;;24.83;12.57;;;3.90;99.90;;;;;;5105975;28;20243;-78
2024/03/04 01:42:06;;;;;;;24.97;12.73;;;3.90;99.90;;;;;;5100104;28;20201;-78
2024/03/04 01:44:35;;;;;;;21.83;12.37;;;3.90;99.90;;;;;;5113715;28;20222;-78
2024/03/04 01:47:05;;;;;;;26.23;14.00;;;3.90;99.90;;;;;;5116600;28;20711;-78
2024/03/04 01:49:34;;;;;;;25.23;13.17;;;3.90;99.90;;;;;;5101684;28;20218;-78
2024/03/04 01:52:01;;;;;;;23.87;13.20;;;3.90;99.90;;;;;;5100772;28;20202;-78
2024/03/04 01:54:30;;;;;;;25.23;13.97;;;3.70;99.90;;;;;;5106074;28;20199;-78
2024/03/04 01:56:57;;;;;;;23.30;12.30;;;3.60;99.90;;;;;;5105899;28;20284;-78
2024/03/04 01:59:27;;;;;;;22.70;12.27;;;3.70;99.90;;;;;;5098947;28;20204;-77
2024/03/04 02:01:54;;;;;;;24.03;13.33;;;3.60;99.90;;;;;;5098136;28;20202;-77
2024/03/04 02:04:22;;;;;;;22.47;12.10;;;3.60;99.90;;;;;;5100482;28;20233;-78
2024/03/04 02:06:51;;;;;;;21.87;12.50;;;3.80;99.90;;;;;;5100512;28;20208;-78
2024/03/04 02:09:20;;;;;;;27.47;13.97;;;3.70;99.90;;;;;;5102749;28;20222;-77
2024/03/04 02:11:47;;;;;;;22.87;13.07;;;3.80;99.90;;;;;;5098454;28;20204;-78
2024/03/04 02:14:15;;;;;;;25.77;13.33;;;3.80;99.90;;;;;;5101241;28;20290;-78
2024/03/04 02:16:44;;;;;;;22.83;12.70;;;3.80;99.90;;;;;;5098321;28;20531;-78
2024/03/04 02:19:15;;;;;;;23.23;12.60;;;3.60;99.90;;;;;;5098776;28;20627;-78
2024/03/04 02:21:47;;;;;;;22.70;12.73;;;3.60;99.90;;;;;;5100247;28;20257;-77
2024/03/04 02:24:16;;;;;;;24.17;13.17;;;3.50;99.90;;;;;;5099372;28;20250;-78
2024/03/04 02:26:45;;;;;;;23.63;12.77;;;3.50;99.90;;;;;;5098510;28;20255;-78
2024/03/04 02:29:13;;;;;;;24.13;12.17;;;3.50;99.90;;;;;;5098807;28;20248;-78
2024/03/04 02:31:40;;;;;;;25.90;13.73;;;3.60;99.90;;;;;;5098367;28;20265;-78
2024/03/04 02:34:08;;;;;;;24.07;12.73;;;3.70;99.90;;;;;;5097802;28;20194;-78
2024/03/04 02:36:35;;;;;;;23.73;13.47;;;3.60;99.90;;;;;;5099196;28;20312;-78
2024/03/04 02:39:03;;;;;;;23.00;13.10;;;3.60;99.90;;;;;;5098092;28;20218;-78
2024/03/04 02:41:32;;;;;;;25.07;13.17;;;3.60;99.90;;;;;;5097219;28;20228;-78
2024/03/04 02:43:59;;;;;;;24.17;13.33;;;3.50;99.90;;;;;;5098072;28;20585;-77
2024/03/04 02:46:26;;;;;;;25.60;14.30;;;3.50;99.90;;;;;;5098942;28;20198;-78
2024/03/04 02:48:55;;;;;;;27.30;15.53;;;3.70;99.90;;;;;;5102453;28;20226;-78
2024/03/04 02:51:21;;;;;;;29.60;15.57;;;3.70;99.90;;;;;;5100402;28;20708;-78
2024/03/04 02:53:48;;;;;;;30.03;16.30;;;3.80;99.90;;;;;;5098296;28;20728;-78
2024/03/04 02:56:15;;;;;;;31.10;17.23;;;4.00;99.90;;;;;;5097510;28;20486;-78
2024/03/04 02:58:43;;;;;;;33.13;17.30;;;4.00;99.90;;;;;;5098103;28;20205;-77
2024/03/04 03:01:10;;;;;;;30.67;16.67;;;3.90;99.90;;;;;;5101355;28;20249;-78
2024/03/04 03:03:37;;;;;;;29.63;15.63;;;3.90;99.90;;;;;;5101786;28;20240;-78
2024/03/04 03:06:06;;;;;;;28.27;15.43;;;3.70;99.90;;;;;;5109766;28;20232;-78
2024/03/04 03:08:33;;;;;;;28.17;15.60;;;3.60;99.90;;;;;;5101580;28;20209;-78
2024/03/04 03:11:00;;;;;;;27.97;16.03;;;3.60;99.90;;;;;;5101458;28;20206;-78
2024/03/04 03:13:27;;;;;;;30.43;16.83;;;3.60;99.90;;;;;;5103930;28;20269;-77
2024/03/04 03:15:56;;;;;;;26.83;15.70;;;3.60;99.90;;;;;;5101207;28;20236;-78
2024/03/04 03:18:22;;;;;;;28.07;15.27;;;3.50;99.90;;;;;;5101992;28;20205;-78
2024/03/04 03:20:49;;;;;;;24.97;14.07;;;3.20;99.90;;;;;;5105654;28;20255;-78
2024/03/04 03:23:16;;;;;;;28.33;14.23;;;3.10;99.90;;;;;;5102570;28;20224;-78
2024/03/04 03:25:43;;;;;;;28.40;15.63;;;3.00;99.90;;;;;;5102243;28;20193;-78
2024/03/04 03:28:10;;;;;;;25.67;13.90;;;2.80;99.90;;;;;;5110772;28;20197;-78
2024/03/04 03:30:37;;;;;;;27.47;14.37;;;2.80;99.90;;;;;;5102478;28;20599;-78
2024/03/04 03:33:05;;;;;;;27.47;15.40;;;3.00;99.90;;;;;;5102389;28;20264;-77
2024/03/04 03:35:32;;;;;;;26.33;15.73;;;2.70;99.90;;;;;;5104235;28;20321;-77
2024/03/04 03:37:59;;;;;;;27.93;14.97;;;2.70;99.90;;;;;;5102129;28;20284;-77
2024/03/04 03:40:26;;;;;;;26.03;15.17;;;2.70;99.90;;;;;;5101528;28;20698;-78
2024/03/04 03:42:55;;;;;;;26.93;15.17;;;2.90;99.90;;;;;;5102358;28;20233;-78
2024/03/04 03:45:21;;;;;;;26.43;14.93;;;2.80;99.90;;;;;;5108351;28;20231;-77
2024/03/04 03:47:48;;;;;;;28.93;15.80;;;3.00;99.90;;;;;;5103154;28;20264;-78
2024/03/04 03:50:17;;;;;;;29.83;17.17;;;3.20;99.90;;;;;;5107213;28;20694;-78
2024/03/04 03:52:43;;;;;;;30.87;17.43;;;3.30;99.90;;;;;;5101761;28;20272;-78
2024/03/04 03:55:10;;;;;;;31.67;16.97;;;3.50;99.90;;;;;;5105051;28;20276;-77
2024/03/04 03:57:37;;;;;;;30.37;16.47;;;3.10;99.90;;;;;;5102307;28;20209;-78
2024/03/04 04:00:10;;;;;;;31.13;16.27;;;3.20;99.90;;;;;;5100646;28;20217;-78
2024/03/04 04:02:38;;;;;;;31.07;17.10;;;3.20;99.90;;;;;;5102539;28;20197;-78
2024/03/04 04:05:05;;;;;;;28.97;15.70;;;3.20;99.90;;;;;;5103360;28;20228;-78
2024/03/04 04:07:34;;;;;;;30.10;16.80;;;3.30;99.90;;;;;;5103486;28;20209;-77
2024/03/04 04:10:00;;;;;;;27.90;15.47;;;3.30;99.90;;;;;;5101626;28;20225;-78
2024/03/04 04:12:27;;;;;;;25.63;14.77;;;3.30;99.90;;;;;;5102568;28;20247;-78
2024/03/04 04:14:54;;;;;;;26.03;14.33;;;3.20;99.90;;;;;;5102520;28;20288;-78
2024/03/04 04:17:21;;;;;;;29.53;16.70;;;3.50;99.90;;;;;;5102025;28;20245;-77
2024/03/04 04:19:48;;;;;;;29.13;16.33;;;3.20;99.90;;;;;;5106378;28;20225;-78
2024/03/04 04:22:15;;;;;;;31.50;16.77;;;3.20;99.90;;;;;;5104245;28;20819;-78
2024/03/04 04:24:43;;;;;;;30.20;16.07;;;3.10;99.90;;;;;;5112623;28;20244;-78
2024/03/04 04:27:10;;;;;;;31.03;15.83;;;3.10;99.90;;;;;;5106587;27;20224;-77
2024/03/04 04:29:36;;;;;;;27.77;15.20;;;3.00;99.90;;;;;;5103258;28;20232;-77
2024/03/04 04:32:03;;;;;;;28.50;15.10;;;2.70;99.90;;;;;;5102321;28;20288;-76
2024/03/04 04:34:30;;;;;;;28.23;14.87;;;2.70;99.90;;;;;;5102501;28;20247;-78
2024/03/04 04:36:58;;;;;;;30.10;15.90;;;2.70;99.90;;;;;;5102960;28;20498;-78
2024/03/04 04:39:26;;;;;;;32.03;15.73;;;2.70;99.90;;;;;;5101746;28;20221;-78
2024/03/04 04:41:54;;;;;;;29.73;16.53;;;2.80;99.90;;;;;;5101903;28;20197;-78
2024/03/04 04:44:22;;;;;;;29.57;16.87;;;2.90;99.90;;;;;;5101712;28;20691;-78
2024/03/04 04:46:49;;;;;;;30.37;16.77;;;2.90;99.90;;;;;;5103111;28;20220;-78
2024/03/04 04:49:16;;;;;;;31.00;16.23;;;3.10;99.90;;;;;;5102342;28;20197;-78
2024/03/04 04:51:43;;;;;;;30.77;16.77;;;3.10;99.90;;;;;;5104989;28;20225;-78
2024/03/04 04:54:12;;;;;;;28.33;15.47;;;2.60;99.90;;;;;;5097871;28;20263;-78
2024/03/04 04:56:38;;;;;;;25.93;14.20;;;2.40;99.90;;;;;;5110016;28;20270;-80
2024/03/04 04:59:07;;;;;;;28.30;16.33;;;2.50;99.90;;;;;;5109915;28;20673;-77
2024/03/04 05:01:34;;;;;;;25.33;14.83;;;2.40;99.90;;;;;;5108948;28;20209;-79
2024/03/04 05:04:02;;;;;;;26.10;15.40;;;2.40;99.90;;;;;;5097138;28;20205;-79
2024/03/04 05:06:28;;;;;;;26.90;15.20;;;2.20;99.90;;;;;;5099884;28;20281;-77
2024/03/04 05:08:55;;;;;;;30.13;16.87;;;2.20;99.90;;;;;;5099964;28;20283;-80
2024/03/04 05:11:22;;;;;;;29.43;16.03;;;2.40;99.90;;;;;;5105691;28;20270;-78
2024/03/04 05:13:49;;;;;;;28.37;15.13;;;2.20;99.90;;;;;;5098965;28;20208;-77
2024/03/04 05:16:17;;;;;;;27.87;15.47;;;2.30;99.90;;;;;;5101599;28;20245;-77
2024/03/04 05:18:44;;;;;;;31.50;16.53;;;2.30;99.90;;;;;;5101247;28;20288;-79
2024/03/04 05:21:11;;;;;;;27.83;16.20;;;2.40;99.90;;;;;;5109687;28;20288;-78
2024/03/04 05:23:39;;;;;;;30.83;16.73;;;2.60;99.90;;;;;;5110086;28;20201;-80
2024/03/04 05:26:05;;;;;;;30.63;16.87;;;2.80;99.90;;;;;;5106277;28;20201;-77
2024/03/04 05:28:32;;;;;;;31.37;16.80;;;2.80;99.90;;;;;;5100398;28;20650;-77
2024/03/04 05:30:59;;;;;;;28.90;15.10;;;2.70;99.90;;;;;;5102378;28;20301;-77
2024/03/04 05:33:27;;;;;;;29.57;15.63;;;2.60;99.90;;;;;;5099934;28;20200;-79
2024/03/04 05:35:54;;;;;;;26.97;14.83;;;2.40;99.90;;;;;;5102295;28;20308;-78
2024/03/04 05:38:21;;;;;;;28.23;15.20;;;2.50;99.90;;;;;;5101878;28;20229;-78
2024/03/04 05:40:48;;;;;;;27.53;15.97;;;2.60;99.90;;;;;;5106808;28;20256;-78
2024/03/04 05:43:15;;;;;;;26.73;14.23;;;2.50;99.90;;;;;;5103863;28;20700;-78
2024/03/04 05:45:42;;;;;;;25.10;14.13;;;2.40;99.90;;;;;;5110730;28;20201;-78
2024/03/04 05:48:09;;;;;;;26.30;14.07;;;2.40;99.90;;;;;;5112991;28;20225;-78
2024/03/04 05:50:37;;;;;;;28.63;14.83;;;2.30;99.90;;;;;;5107766;28;20611;-79
2024/03/04 05:53:05;;;;;;;27.03;15.03;;;2.50;99.90;;;;;;5104767;28;20206;-79
2024/03/04 05:55:32;;;;;;;26.13;14.83;;;2.60;99.90;;;;;;5107671;28;20196;-78
2024/03/04 05:57:58;;;;;;;27.73;14.97;;;2.60;99.90;;;;;;5105982;28;20285;-81
2024/03/04 06:00:25;;;;;;;26.77;15.33;;;2.80;99.90;;;;;;5099242;28;20267;-79
2024/03/04 06:02:52;;;;;;;29.07;16.43;;;2.90;99.90;;;;;;5095835;28;20201;-79
2024/03/04 06:05:19;;;;;;;32.97;17.07;;;3.00;99.90;;;;;;5095314;28;20288;-79
2024/03/04 06:07:48;;;;;;;29.17;16.13;;;3.10;99.90;;;;;;5103847;28;20197;-77
2024/03/04 06:10:15;;;;;;;33.30;16.83;;;3.40;99.90;;;;;;5101804;28;20711;-77
2024/03/04 06:12:42;;;;;;;31.60;17.03;;;3.20;99.90;;;;;;5105143;28;20205;-78
2024/03/04 06:15:10;;;;;;;34.63;17.97;;;3.40;99.90;;;;;;5102124;28;20208;-78
2024/03/04 06:17:37;;;;;;;50.77;18.20;;;3.40;99.90;;;;;;5105425;28;20224;-80
2024/03/04 06:20:09;;;;;;;36.93;18.00;;;3.30;99.90;;;;;;5101785;28;20217;-80
2024/03/04 06:22:36;;;;;;;38.37;15.63;;;3.40;99.90;;;;;;5106200;28;20573;-81
2024/03/04 06:25:05;;;;;;;40.77;16.77;;;3.50;99.90;;;;;;5104571;28;20201;-81
2024/03/04 06:27:33;;;;;;;33.13;16.47;;;3.50;99.90;;;;;;5104000;28;20212;-80
2024/03/04 06:30:00;;;;;;;38.33;16.23;;;3.60;99.90;;;;;;5106739;28;20297;-80
2024/03/04 06:32:27;;;;;;;41.90;15.93;;;3.60;99.90;;;;;;5103981;28;20212;-81
2024/03/04 06:34:56;;;;;;;36.43;16.73;;;3.80;99.90;;;;;;5109419;28;20209;-78
2024/03/04 06:37:22;;;;;;;39.87;16.67;;;3.80;99.90;;;;;;5109464;28;20274;-80
2024/03/04 06:39:49;;;;;;;53.00;16.80;;;3.90;99.90;;;;;;5110138;28;20217;-80
2024/03/04 06:42:17;;;;;;;41.23;17.50;;;3.90;99.90;;;;;;5113003;28;20203;-81
2024/03/04 06:44:44;;;;;;;38.80;17.47;;;3.90;99.90;;;;;;5111675;28;20300;-80
2024/03/04 06:47:11;;;;;;;39.27;18.47;;;3.90;99.90;;;;;;5108715;28;20300;-80
2024/03/04 06:49:39;;;;;;;35.47;18.67;;;3.90;99.90;;;;;;5110343;28;20316;-80
2024/03/04 06:52:06;;;;;;;42.30;18.37;;;3.90;99.90;;;;;;5104527;28;20205;-81
2024/03/04 06:54:33;;;;;;;36.07;19.47;;;4.00;99.90;;;;;;5107204;28;20201;-79
2024/03/04 06:56:59;;;;;;;57.13;21.47;;;4.00;99.90;;;;;;5108356;28;20221;-81
2024/03/04 06:59:28;;;;;;;47.90;23.03;;;4.10;99.90;;;;;;5103384;28;20222;-81
2024/03/04 07:01:54;;;;;;;52.33;20.97;;;4.10;99.90;;;;;;5107635;28;20273;-79
2024/03/04 07:04:21;;;;;;;50.90;22.27;;;4.10;99.90;;;;;;5099240;28;20539;-80
2024/03/04 07:06:48;;;;;;;57.37;23.17;;;4.10;99.90;;;;;;5100990;28;20207;-80
2024/03/04 07:09:15;;;;;;;77.30;22.67;;;4.20;99.90;;;;;;5108723;28;20228;-80
2024/03/04 07:11:42;;;;;;;63.70;24.40;;;4.10;99.90;;;;;;5099022;27;20202;-80
2024/03/04 07:14:09;;;;;;;48.73;21.33;;;4.20;99.90;;;;;;5110156;28;20216;-80
2024/03/04 07:16:37;;;;;;;49.97;21.30;;;4.20;99.90;;;;;;5110383;28;20225;-81
2024/03/04 07:19:04;;;;;;;71.10;21.27;;;4.20;99.90;;;;;;5108136;28;20684;-81
2024/03/04 07:21:31;;;;;;;57.77;20.57;;;4.30;99.90;;;;;;5107083;28;20707;-79
2024/03/04 07:23:58;;;;;;;54.10;23.40;;;4.20;99.90;;;;;;5113473;28;20542;-79
2024/03/04 07:26:24;;;;;;;39.20;20.33;;;4.20;99.90;;;;;;5112486;28;20198;-80
2024/03/04 07:28:51;;;;;;;55.77;22.23;;;4.20;99.90;;;;;;5118053;28;20208;-81
2024/03/04 07:31:19;;;;;;;52.23;23.10;;;4.20;99.90;;;;;;5105503;28;20225;-81
2024/03/04 07:33:47;;;;;;;56.27;23.20;;;4.30;99.90;;;;;;5110400;28;20206;-80
2024/03/04 07:36:14;;;;;;;47.07;21.33;;;4.30;99.90;;;;;;5107021;28;20339;-81
2024/03/04 07:38:41;;;;;;;37.37;19.63;;;4.40;99.90;;;;;;5111107;28;20198;-81
2024/03/04 07:41:08;;;;;;;43.47;20.90;;;4.40;99.90;;;;;;5110225;28;20252;-80
2024/03/04 07:43:35;;;;;;;47.83;19.53;;;4.50;99.90;;;;;;5108179;27;20327;-81
2024/03/04 07:46:02;;;;;;;43.10;20.33;;;4.50;99.90;;;;;;5105833;28;20785;-81
2024/03/04 07:48:29;;;;;;;66.00;20.47;;;4.50;99.90;;;;;;5105280;28;20565;-81
2024/03/04 07:50:58;;;;;;;43.73;20.40;;;4.50;99.90;;;;;;5111995;28;20242;-82
2024/03/04 07:53:24;;;;;;;46.87;21.03;;;4.50;99.90;;;;;;5104655;28;20208;-81
2024/03/04 07:55:51;;;;;;;47.40;21.20;;;4.50;99.90;;;;;;5101134;28;20219;-80
2024/03/04 07:58:18;;;;;;;58.47;21.03;;;4.50;99.90;;;;;;5102062;28;20308;-80
2024/03/04 08:00:45;;;;;;;46.97;20.23;;;4.60;99.90;;;;;;5097374;28;20251;-80
2024/03/04 08:03:12;;;;;;;47.33;20.93;;;4.60;99.90;;;;;;5099502;28;20288;-81
2024/03/04 08:05:39;;;;;;;56.30;21.23;;;4.60;99.90;;;;;;5102090;28;20617;-81
2024/03/04 08:08:08;;;;;;;50.53;20.10;;;4.70;99.90;;;;;;5106496;28;20216;-81
2024/03/04 08:10:34;;;;;;;59.13;20.70;;;4.80;99.90;;;;;;5103138;28;20226;-80
2024/03/04 08:13:01;;;;;;;55.43;19.53;;;4.80;99.90;;;;;;5106321;28;20200;-80
2024/03/04 08:15:28;;;;;;;63.47;20.83;;;4.90;99.90;;;;;;5105627;28;20193;-81
2024/03/04 08:17:55;;;;;;;48.47;20.23;;;4.90;99.90;;;;;;5108885;28;20232;-80
2024/03/04 08:20:22;;;;;;;46.27;19.27;;;5.00;99.90;;;;;;5106600;28;20217;-81
2024/03/04 08:22:49;;;;;;;48.97;19.80;;;4.90;99.90;;;;;;5106969;28;20196;-80
2024/03/04 08:25:17;;;;;;;81.67;22.33;;;5.00;99.90;;;;;;5104082;28;20643;-81
2024/03/04 08:27:44;;;;;;;98.87;21.73;;;4.90;99.90;;;;;;5106965;28;20221;-81
2024/03/04 08:30:14;;;;;;;62.83;22.60;;;4.90;99.90;;;;;;5106736;28;20232;-81
2024/03/04 08:32:42;;;;;;;55.50;21.53;;;5.00;99.90;;;;;;5107543;28;20202;-81
2024/03/04 08:35:10;;;;;;;112.23;23.43;;;5.10;99.90;;;;;;5108283;28;20616;-81
2024/03/04 08:37:37;;;;;;;81.33;21.77;;;5.30;99.90;;;;;;5110165;28;20217;-81
2024/03/04 08:40:04;;;;;;;115.37;23.43;;;5.20;99.90;;;;;;5110839;28;20594;-81
2024/03/04 08:42:33;;;;;;;104.20;22.97;;;5.30;99.90;;;;;;5109973;28;20702;-81
2024/03/04 08:44:59;;;;;;;70.57;23.27;;;5.40;99.90;;;;;;5111983;28;20209;-81
2024/03/04 08:47:26;;;;;;;105.13;25.90;;;5.40;99.90;;;;;;5109800;28;20220;-80
2024/03/04 08:49:55;;;;;;;98.70;24.03;;;5.40;99.90;;;;;;5107849;28;20223;-81
2024/03/04 08:52:21;;;;;;;53.20;21.03;;;5.60;99.90;;;;;;5111955;28;20201;-81
2024/03/04 08:54:49;;;;;;;64.87;24.17;;;5.60;99.90;;;;;;5109222;28;20193;-81
2024/03/04 08:57:16;;;;;;;76.67;23.30;;;5.50;99.90;;;;;;5104821;28;20599;-81
2024/03/04 08:59:44;;;;;;;57.27;21.50;;;5.70;99.90;;;;;;5097889;28;20232;-81
2024/03/04 09:02:11;;;;;;;68.40;23.73;;;5.50;99.90;;;;;;5098909;28;20201;-80
2024/03/04 09:04:38;;;;;;;88.97;24.60;;;5.70;99.90;;;;;;5100300;28;20282;-81
2024/03/04 09:07:05;;;;;;;91.37;24.77;;;5.80;99.90;;;;;;5101274;28;20209;-80
2024/03/04 09:09:33;;;;;;;146.33;27.57;;;5.80;99.90;;;;;;5105785;28;20324;-81
2024/03/04 09:12:03;;;;;;;43.73;23.80;;;6.10;99.90;;;;;;5105707;27;20575;-81
2024/03/04 09:14:30;;;;;;;44.57;23.10;;;6.00;99.90;;;;;;5098940;28;20206;-82
2024/03/04 09:16:58;;;;;;;50.73;23.37;;;6.00;99.90;;;;;;5102604;28;22152;-81
2024/03/04 09:19:26;;;;;;;62.47;24.07;;;6.10;99.90;;;;;;5107759;28;20205;-82
2024/03/04 09:21:54;;;;;;;89.93;25.90;;;6.00;99.90;;;;;;5105370;28;20291;-81
2024/03/04 09:24:21;;;;;;;148.30;27.07;;;6.20;99.90;;;;;;5105746;28;20197;-80
2024/03/04 09:26:48;;;;;;;110.00;25.60;;;6.10;99.90;;;;;;5109226;28;20657;-81
2024/03/04 09:29:15;;;;;;;71.20;23.77;;;6.20;99.90;;;;;;5104460;28;20209;-81
2024/03/04 09:31:44;;;;;;;55.17;24.40;;;6.40;99.90;;;;;;5109002;28;20652;-81
2024/03/04 09:34:12;;;;;;;48.20;23.60;;;6.60;99.90;;;;;;5109603;28;20712;-80
2024/03/04 09:36:39;;;;;;;37.73;24.07;;;6.50;99.90;;;;;;5107230;28;20625;-81
2024/03/04 09:39:05;;;;;;;36.87;22.70;;;6.50;99.90;;;;;;5110268;28;20277;-80
2024/03/04 09:41:36;;;;;;;42.73;22.87;;;6.60;99.90;;;;;;5107706;28;20279;-81
2024/03/04 09:44:04;;;;;;;38.10;24.70;;;7.00;99.90;;;;;;5111063;28;20272;-81
2024/03/04 09:46:32;;;;;;;38.67;24.57;;;7.20;99.90;;;;;;5108087;28;20213;-81
2024/03/04 09:49:00;;;;;;;39.30;25.37;;;7.20;99.90;;;;;;5116082;28;20192;-80
2024/03/04 09:51:30;;;;;;;36.87;23.63;;;7.20;99.90;;;;;;5111047;28;20249;-79
2024/03/04 09:53:58;;;;;;;37.07;24.17;;;7.20;99.90;;;;;;5100002;28;20197;-79
2024/03/04 09:56:26;;;;;;;38.10;25.07;;;7.20;99.90;;;;;;5104482;28;20204;-79
2024/03/04 09:58:54;;;;;;;39.33;25.77;;;7.30;99.90;;;;;;5099221;28;20285;-80
2024/03/04 10:01:22;;;;;;;36.60;25.13;;;7.40;99.90;;;;;;5100570;28;20252;-79
2024/03/04 10:03:51;;;;;;;36.63;24.10;;;7.40;99.90;;;;;;5104766;28;20205;-79
2024/03/04 10:06:18;;;;;;;38.57;25.83;;;7.60;99.90;;;;;;5099402;28;20288;-79
2024/03/04 10:08:46;;;;;;;38.20;25.00;;;7.60;99.90;;;;;;5100639;28;20234;-79
2024/03/04 10:11:13;;;;;;;42.20;25.70;;;7.70;99.90;;;;;;5103262;28;20588;-79
2024/03/04 10:13:40;;;;;;;38.50;25.63;;;8.50;99.90;;;;;;5103749;28;20225;-80
2024/03/04 10:16:09;;;;;;;37.27;24.73;;;8.40;99.90;;;;;;5105186;28;20264;-79
2024/03/04 10:18:36;;;;;;;37.77;24.83;;;8.60;99.90;;;;;;5105899;28;20661;-79
2024/03/04 10:21:03;;;;;;;36.87;24.03;;;8.70;99.90;;;;;;5106404;28;20231;-79
2024/03/04 10:23:30;;;;;;;33.10;21.50;;;9.00;99.90;;;;;;5108304;28;20201;-79
2024/03/04 10:26:08;;;;;;;31.07;22.13;;;9.00;99.90;;;;;;5103823;28;20572;-79
2024/03/04 10:28:38;;;;;;;32.57;22.17;;;9.30;99.90;;;;;;5107976;28;20198;-79
2024/03/04 10:31:09;;;;;;;31.13;20.57;;;9.20;99.90;;;;;;5105242;28;20220;-79
2024/03/04 10:33:36;;;;;;;31.80;21.50;;;9.10;99.90;;;;;;5117581;28;20261;-79
2024/03/04 10:36:20;;;;;;;34.50;22.00;;;9.10;99.90;;;;;;5116637;28;20197;-79
2024/03/04 10:38:49;;;;;;;32.03;20.53;;;9.20;99.90;;;;;;5117143;28;20271;-79
2024/03/04 10:41:18;;;;;;;30.17;19.53;;;9.10;99.90;;;;;;5118944;27;20280;-79
2024/03/04 10:43:46;;;;;;;34.27;22.53;;;9.00;99.90;;;;;;5118049;28;20210;-78
2024/03/04 10:46:15;;;;;;;31.67;21.60;;;9.10;99.90;;;;;;5119326;28;20201;-79
2024/03/04 10:48:42;;;;;;;31.40;21.60;;;9.20;99.90;;;;;;5118113;28;20232;-79
2024/03/04 10:51:09;;;;;;;32.77;22.10;;;9.40;99.90;;;;;;5119328;28;20596;-79
2024/03/04 10:53:36;;;;;;;31.93;20.73;;;9.50;99.90;;;;;;5106344;28;20309;-79
2024/03/04 10:56:06;;;;;;;31.10;21.17;;;9.40;99.90;;;;;;5103103;28;20260;-79
2024/03/04 10:58:35;;;;;;;34.97;23.03;;;9.20;99.90;;;;;;5108753;28;20225;-79
2024/03/04 11:01:09;;;;;;;33.47;21.97;;;9.30;99.90;;;;;;5103874;28;20231;-79
2024/03/04 11:03:41;;;;;;;37.70;23.63;;;9.30;99.90;;;;;;5103546;28;20254;-79
2024/03/04 11:06:14;;;;;;;35.10;23.17;;;9.30;99.90;;;;;;5101514;28;20208;-79
2024/03/04 11:08:48;;;;;;;35.43;23.37;;;9.30;99.90;;;;;;5106056;28;20671;-79
2024/03/04 11:11:19;;;;;;;36.10;23.83;;;9.20;99.90;;;;;;5103734;28;20591;-79
2024/03/04 11:13:54;;;;;;;34.90;22.93;;;9.50;99.90;;;;;;5104928;28;20288;-79
2024/03/04 11:16:23;;;;;;;38.40;25.07;;;9.60;99.90;;;;;;5105365;28;20205;-80
2024/03/04 11:18:59;;;;;;;34.47;23.63;;;9.70;99.90;;;;;;5106287;28;20232;-79
2024/03/04 11:21:27;;;;;;;39.77;25.40;;;9.80;99.90;;;;;;5103262;28;20592;-79
2024/03/04 11:23:54;;;;;;;35.67;22.70;;;9.70;99.90;;;;;;5106569;28;20198;-79
2024/03/04 11:26:23;;;;;;;39.40;25.63;;;9.90;99.90;;;;;;5104024;28;20607;-79
2024/03/04 11:28:52;;;;;;;37.77;23.67;;;9.80;99.90;;;;;;5109094;28;20220;-79
2024/03/04 11:31:26;;;;;;;41.13;25.70;;;9.90;99.90;;;;;;5103656;28;20338;-80
2024/03/04 11:34:01;;;;;;;38.50;25.13;;;9.80;99.90;;;;;;5104348;28;20265;-80
2024/03/04 11:36:28;;;;;;;40.30;26.00;;;9.70;99.90;;;;;;5110586;28;20197;-79
2024/03/04 11:38:56;;;;;;;45.23;26.60;;;9.60;99.90;;;;;;5116422;28;20223;-79
2024/03/04 11:41:48;;;;;;;41.73;26.30;;;9.70;99.90;;;;;;5116621;28;20217;-78
2024/03/04 11:44:20;;;;;;;45.90;29.53;;;10.00;99.90;;;;;;5106277;28;20507;-79
2024/03/04 11:46:47;;;;;;;48.20;29.53;;;10.10;1.00;;;;;;5119941;28;20250;-80
2024/03/04 11:49:24;;;;;;;45.37;29.27;;;10.40;1.00;;;;;;5122112;28;20647;-79
2024/03/04 11:52:02;;;;;;;46.20;30.33;;;10.30;99.90;;;;;;5121351;28;20682;-79
2024/03/04 11:54:45;;;;;;;46.10;29.83;;;10.30;99.90;;;;;;5110637;28;20202;-80
2024/03/04 11:57:13;;;;;;;46.47;30.30;;;10.40;1.00;;;;;;5110028;28;20201;-80
2024/03/04 11:59:42;;;;;;;51.93;32.07;;;10.30;1.00;;;;;;5102145;28;20228;-79
2024/03/04 12:02:09;;;;;;;47.97;31.47;;;10.50;99.90;;;;;;5105999;28;20217;-79
2024/03/04 12:04:38;;;;;;;50.67;30.83;;;10.30;1.00;;;;;;5102976;28;20811;-79
2024/03/04 12:07:06;;;;;;;51.80;31.87;;;10.50;1.00;;;;;;5106887;28;20201;-79
2024/03/04 12:09:34;;;;;;;49.50;31.63;;;10.30;99.90;;;;;;5101884;28;20259;-79
2024/03/04 12:12:04;;;;;;;51.60;33.40;;;10.40;99.90;;;;;;5103030;28;20197;-79
2024/03/04 12:14:31;;;;;;;49.77;31.83;;;10.50;99.90;;;;;;5106945;28;20205;-80
2024/03/04 12:16:59;;;;;;;47.07;30.13;;;10.60;1.00;;;;;;5101288;28;20289;-77
2024/03/04 12:19:26;;;;;;;49.00;31.40;;;10.60;1.00;;;;;;5102499;28;20221;-78
2024/03/04 12:21:54;;;;;;;49.53;30.40;;;10.80;1.00;;;;;;5105896;28;20233;-78
2024/03/04 12:24:23;;;;;;;48.13;30.50;;;10.80;99.90;;;;;;5102482;28;20197;-80
2024/03/04 12:26:50;;;;;;;43.37;28.67;;;10.90;99.90;;;;;;5101265;28;20251;-78
2024/03/04 12:29:22;;;;;;;46.43;30.90;;;10.80;1.00;;;;;;5104580;28;20652;-78
2024/03/04 12:31:53;;;;;;;45.50;29.53;;;10.80;1.00;;;;;;5111807;28;20293;-78
2024/03/04 12:34:22;;;;;;;44.47;30.57;;;10.90;1.00;;;;;;5099278;28;20243;-78
2024/03/04 12:36:50;;;;;;;45.83;30.10;;;10.80;1.00;;;;;;5099927;28;20217;-78
2024/03/04 12:39:19;;;;;;;44.97;29.33;;;11.00;1.00;;;;;;5100154;28;20257;-78